sensor_id;sensor_type;location;lat;lon;timestamp;P1;durP1;ratioP1;P2;durP2;ratioP2
26502;SDS011;14177;51.520;6.764;2023-01-29T00:02:26;57.70;;;26.88;;
26502;SDS011;14177;51.520;6.764;2023-01-29T00:04:53;57.33;;;27.40;;
26502;SDS011;14177;51.520;6.764;2023-01-29T00:07:24;55.60;;;26.52;;
26502;SDS011;14177;51.520;6.764;2023-01-29T00:09:51;50.28;;;25.00;;
26502;SDS011;14177;51.520;6.764;2023-01-29T00:12:18;56.15;;;27.65;;
26502;SDS011;14177;51.520;6.764;2023-01-29T00:14:45;53.28;;;24.77;;
26502;SDS011;14177;51.520;6.764;2023-01-29T00:17:12;51.67;;;25.02;;
26502;SDS011;14177;51.520;6.764;2023-01-29T00:19:40;51.55;;;25.88;;
26502;SDS011;14177;51.520;6.764;2023-01-29T00:22:07;53.22;;;26.60;;
26502;SDS011;14177;51.520;6.764;2023-01-29T00:24:33;58.78;;;26.55;;
26502;SDS011;14177;51.520;6.764;2023-01-29T00:27:00;51.58;;;26.08;;
26502;SDS011;14177;51.520;6.764;2023-01-29T00:29:27;47.88;;;24.08;;
26502;SDS011;14177;51.520;6.764;2023-01-29T00:31:54;54.35;;;25.73;;
26502;SDS011;14177;51.520;6.764;2023-01-29T00:34:21;62.08;;;28.60;;
26502;SDS011;14177;51.520;6.764;2023-01-29T00:36:48;62.90;;;27.33;;
26502;SDS011;14177;51.520;6.764;2023-01-29T00:39:15;62.97;;;28.13;;
26502;SDS011;14177;51.520;6.764;2023-01-29T00:41:42;64.15;;;27.55;;
26502;SDS011;14177;51.520;6.764;2023-01-29T00:44:27;68.93;;;28.73;;
26502;SDS011;14177;51.520;6.764;2023-01-29T00:47:13;61.25;;;29.48;;
26502;SDS011;14177;51.520;6.764;2023-01-29T00:49:59;81.97;;;32.03;;
26502;SDS011;14177;51.520;6.764;2023-01-29T00:52:28;83.30;;;32.42;;
26502;SDS011;14177;51.520;6.764;2023-01-29T00:54:56;81.95;;;33.78;;
26502;SDS011;14177;51.520;6.764;2023-01-29T00:57:26;83.45;;;33.50;;
26502;SDS011;14177;51.520;6.764;2023-01-29T00:59:55;75.75;;;31.92;;
26502;SDS011;14177;51.520;6.764;2023-01-29T01:02:23;73.70;;;31.15;;
26502;SDS011;14177;51.520;6.764;2023-01-29T01:05:10;75.40;;;31.48;;
26502;SDS011;14177;51.520;6.764;2023-01-29T01:07:47;70.57;;;30.20;;
26502;SDS011;14177;51.520;6.764;2023-01-29T01:10:20;79.20;;;29.73;;
26502;SDS011;14177;51.520;6.764;2023-01-29T01:12:59;72.38;;;29.85;;
26502;SDS011;14177;51.520;6.764;2023-01-29T01:15:35;64.15;;;28.55;;
26502;SDS011;14177;51.520;6.764;2023-01-29T01:18:05;56.25;;;26.50;;
26502;SDS011;14177;51.520;6.764;2023-01-29T01:20:33;61.33;;;28.50;;
26502;SDS011;14177;51.520;6.764;2023-01-29T01:23:01;56.72;;;25.17;;
26502;SDS011;14177;51.520;6.764;2023-01-29T01:25:28;58.10;;;26.58;;
26502;SDS011;14177;51.520;6.764;2023-01-29T01:27:55;53.78;;;23.85;;
26502;SDS011;14177;51.520;6.764;2023-01-29T01:30:24;51.45;;;23.65;;
26502;SDS011;14177;51.520;6.764;2023-01-29T01:32:52;51.03;;;22.98;;
26502;SDS011;14177;51.520;6.764;2023-01-29T01:35:19;56.03;;;24.70;;
26502;SDS011;14177;51.520;6.764;2023-01-29T01:37:46;51.22;;;23.77;;
26502;SDS011;14177;51.520;6.764;2023-01-29T01:40:15;51.85;;;23.10;;
26502;SDS011;14177;51.520;6.764;2023-01-29T01:42:48;48.25;;;22.58;;
26502;SDS011;14177;51.520;6.764;2023-01-29T01:50:49;51.90;;;23.27;;
26502;SDS011;14177;51.520;6.764;2023-01-29T01:53:38;42.28;;;20.40;;
26502;SDS011;14177;51.520;6.764;2023-01-29T01:56:13;42.33;;;20.35;;
26502;SDS011;14177;51.520;6.764;2023-01-29T01:58:56;48.05;;;21.17;;
26502;SDS011;14177;51.520;6.764;2023-01-29T02:01:24;47.25;;;22.02;;
26502;SDS011;14177;51.520;6.764;2023-01-29T02:04:10;54.60;;;22.88;;
26502;SDS011;14177;51.520;6.764;2023-01-29T02:07:02;45.97;;;21.80;;
26502;SDS011;14177;51.520;6.764;2023-01-29T02:09:51;45.13;;;20.75;;
26502;SDS011;14177;51.520;6.764;2023-01-29T02:12:24;48.08;;;22.45;;
26502;SDS011;14177;51.520;6.764;2023-01-29T02:14:56;48.10;;;22.10;;
26502;SDS011;14177;51.520;6.764;2023-01-29T02:17:23;46.92;;;20.70;;
26502;SDS011;14177;51.520;6.764;2023-01-29T02:20:02;48.55;;;22.08;;
26502;SDS011;14177;51.520;6.764;2023-01-29T02:31:00;45.67;;;21.00;;
26502;SDS011;14177;51.520;6.764;2023-01-29T02:36:40;45.13;;;21.83;;
26502;SDS011;14177;51.520;6.764;2023-01-29T02:39:34;47.78;;;20.35;;
26502;SDS011;14177;51.520;6.764;2023-01-29T02:42:27;46.75;;;21.63;;
26502;SDS011;14177;51.520;6.764;2023-01-29T02:45:18;42.92;;;19.27;;
26502;SDS011;14177;51.520;6.764;2023-01-29T02:48:21;41.53;;;20.25;;
26502;SDS011;14177;51.520;6.764;2023-01-29T02:50:57;45.67;;;19.88;;
26502;SDS011;14177;51.520;6.764;2023-01-29T02:56:09;43.30;;;20.33;;
26502;SDS011;14177;51.520;6.764;2023-01-29T02:58:57;44.83;;;20.45;;
26502;SDS011;14177;51.520;6.764;2023-01-29T03:01:35;42.60;;;21.05;;
26502;SDS011;14177;51.520;6.764;2023-01-29T03:04:15;44.25;;;20.75;;
26502;SDS011;14177;51.520;6.764;2023-01-29T03:06:52;43.20;;;19.17;;
26502;SDS011;14177;51.520;6.764;2023-01-29T03:09:33;48.45;;;22.05;;
26502;SDS011;14177;51.520;6.764;2023-01-29T03:12:24;43.58;;;20.13;;
26502;SDS011;14177;51.520;6.764;2023-01-29T03:15:02;41.78;;;19.00;;
26502;SDS011;14177;51.520;6.764;2023-01-29T03:17:54;44.67;;;20.70;;
26502;SDS011;14177;51.520;6.764;2023-01-29T03:20:34;46.40;;;21.10;;
26502;SDS011;14177;51.520;6.764;2023-01-29T03:23:18;47.85;;;21.13;;
26502;SDS011;14177;51.520;6.764;2023-01-29T03:25:53;43.35;;;20.98;;
26502;SDS011;14177;51.520;6.764;2023-01-29T03:28:43;36.80;;;17.40;;
26502;SDS011;14177;51.520;6.764;2023-01-29T03:31:32;39.38;;;19.30;;
26502;SDS011;14177;51.520;6.764;2023-01-29T03:34:20;43.08;;;19.58;;
26502;SDS011;14177;51.520;6.764;2023-01-29T03:36:54;42.25;;;20.05;;
26502;SDS011;14177;51.520;6.764;2023-01-29T03:39:28;37.92;;;18.70;;
26502;SDS011;14177;51.520;6.764;2023-01-29T03:50:37;39.50;;;17.90;;
26502;SDS011;14177;51.520;6.764;2023-01-29T03:53:26;44.17;;;18.98;;
26502;SDS011;14177;51.520;6.764;2023-01-29T03:59:48;38.60;;;18.83;;
26502;SDS011;14177;51.520;6.764;2023-01-29T04:02:27;42.53;;;19.02;;
26502;SDS011;14177;51.520;6.764;2023-01-29T04:05:13;39.20;;;19.48;;
26502;SDS011;14177;51.520;6.764;2023-01-29T04:08:03;44.10;;;19.05;;
26502;SDS011;14177;51.520;6.764;2023-01-29T04:10:38;44.70;;;20.17;;
26502;SDS011;14177;51.520;6.764;2023-01-29T04:13:10;42.95;;;20.23;;
26502;SDS011;14177;51.520;6.764;2023-01-29T04:15:44;43.40;;;19.25;;
26502;SDS011;14177;51.520;6.764;2023-01-29T04:18:22;45.45;;;20.17;;
26502;SDS011;14177;51.520;6.764;2023-01-29T04:21:05;43.40;;;19.77;;
26502;SDS011;14177;51.520;6.764;2023-01-29T04:23:32;39.75;;;19.83;;
26502;SDS011;14177;51.520;6.764;2023-01-29T04:35:30;45.22;;;19.27;;
26502;SDS011;14177;51.520;6.764;2023-01-29T04:38:51;37.33;;;19.52;;
26502;SDS011;14177;51.520;6.764;2023-01-29T04:41:04;37.90;;;19.00;;
26502;SDS011;14177;51.520;6.764;2023-01-29T04:47:02;46.65;;;21.67;;
26502;SDS011;14177;51.520;6.764;2023-01-29T04:50:03;47.22;;;20.70;;
26502;SDS011;14177;51.520;6.764;2023-01-29T04:52:56;45.50;;;20.35;;
26502;SDS011;14177;51.520;6.764;2023-01-29T04:55:48;45.25;;;20.52;;
26502;SDS011;14177;51.520;6.764;2023-01-29T04:58:30;45.70;;;21.15;;
26502;SDS011;14177;51.520;6.764;2023-01-29T05:01:17;47.95;;;21.10;;
26502;SDS011;14177;51.520;6.764;2023-01-29T05:03:47;44.63;;;20.80;;
26502;SDS011;14177;51.520;6.764;2023-01-29T05:06:18;39.97;;;19.75;;
26502;SDS011;14177;51.520;6.764;2023-01-29T05:08:47;44.80;;;19.90;;
26502;SDS011;14177;51.520;6.764;2023-01-29T05:11:19;47.65;;;22.00;;
26502;SDS011;14177;51.520;6.764;2023-01-29T05:13:48;45.95;;;22.30;;
26502;SDS011;14177;51.520;6.764;2023-01-29T05:16:18;44.20;;;21.23;;
26502;SDS011;14177;51.520;6.764;2023-01-29T05:19:10;42.67;;;19.90;;
26502;SDS011;14177;51.520;6.764;2023-01-29T05:21:41;47.90;;;21.33;;
26502;SDS011;14177;51.520;6.764;2023-01-29T05:24:12;43.08;;;19.77;;
26502;SDS011;14177;51.520;6.764;2023-01-29T05:26:48;39.95;;;19.33;;
26502;SDS011;14177;51.520;6.764;2023-01-29T05:29:35;43.47;;;18.63;;
26502;SDS011;14177;51.520;6.764;2023-01-29T05:32:02;44.17;;;20.40;;
26502;SDS011;14177;51.520;6.764;2023-01-29T05:34:29;45.15;;;21.30;;
26502;SDS011;14177;51.520;6.764;2023-01-29T05:36:56;41.83;;;20.13;;
26502;SDS011;14177;51.520;6.764;2023-01-29T05:39:23;42.88;;;19.20;;
26502;SDS011;14177;51.520;6.764;2023-01-29T05:41:50;46.40;;;19.98;;
26502;SDS011;14177;51.520;6.764;2023-01-29T05:44:17;44.28;;;20.20;;
26502;SDS011;14177;51.520;6.764;2023-01-29T05:46:44;42.35;;;19.42;;
26502;SDS011;14177;51.520;6.764;2023-01-29T05:49:11;43.50;;;20.38;;
26502;SDS011;14177;51.520;6.764;2023-01-29T05:51:38;50.20;;;20.30;;
26502;SDS011;14177;51.520;6.764;2023-01-29T05:54:05;43.88;;;21.13;;
26502;SDS011;14177;51.520;6.764;2023-01-29T05:56:32;43.17;;;19.77;;
26502;SDS011;14177;51.520;6.764;2023-01-29T05:58:59;46.13;;;20.50;;
26502;SDS011;14177;51.520;6.764;2023-01-29T06:01:26;43.58;;;19.95;;
26502;SDS011;14177;51.520;6.764;2023-01-29T06:03:52;44.22;;;21.10;;
26502;SDS011;14177;51.520;6.764;2023-01-29T06:06:19;49.42;;;20.13;;
26502;SDS011;14177;51.520;6.764;2023-01-29T06:08:46;49.78;;;21.55;;
26502;SDS011;14177;51.520;6.764;2023-01-29T06:11:13;47.58;;;22.00;;
26502;SDS011;14177;51.520;6.764;2023-01-29T06:13:46;48.30;;;20.58;;
26502;SDS011;14177;51.520;6.764;2023-01-29T06:16:13;42.88;;;20.58;;
26502;SDS011;14177;51.520;6.764;2023-01-29T06:18:40;48.80;;;21.65;;
26502;SDS011;14177;51.520;6.764;2023-01-29T06:21:10;50.42;;;21.83;;
26502;SDS011;14177;51.520;6.764;2023-01-29T06:23:42;47.38;;;21.80;;
26502;SDS011;14177;51.520;6.764;2023-01-29T06:26:10;43.35;;;20.83;;
26502;SDS011;14177;51.520;6.764;2023-01-29T06:28:39;48.30;;;21.65;;
26502;SDS011;14177;51.520;6.764;2023-01-29T06:31:07;39.35;;;20.80;;
26502;SDS011;14177;51.520;6.764;2023-01-29T06:33:56;42.88;;;20.80;;
26502;SDS011;14177;51.520;6.764;2023-01-29T06:36:22;43.40;;;20.83;;
26502;SDS011;14177;51.520;6.764;2023-01-29T06:38:49;45.63;;;20.42;;
26502;SDS011;14177;51.520;6.764;2023-01-29T06:41:17;48.42;;;21.20;;
26502;SDS011;14177;51.520;6.764;2023-01-29T06:43:47;43.78;;;21.13;;
26502;SDS011;14177;51.520;6.764;2023-01-29T06:46:14;43.33;;;20.08;;
26502;SDS011;14177;51.520;6.764;2023-01-29T06:48:41;50.03;;;20.45;;
26502;SDS011;14177;51.520;6.764;2023-01-29T06:51:09;47.92;;;21.30;;
26502;SDS011;14177;51.520;6.764;2023-01-29T06:53:37;53.50;;;22.85;;
26502;SDS011;14177;51.520;6.764;2023-01-29T06:56:05;46.03;;;19.58;;
26502;SDS011;14177;51.520;6.764;2023-01-29T06:58:32;45.22;;;21.70;;
26502;SDS011;14177;51.520;6.764;2023-01-29T07:01:07;49.92;;;22.45;;
26502;SDS011;14177;51.520;6.764;2023-01-29T07:03:50;48.42;;;22.25;;
26502;SDS011;14177;51.520;6.764;2023-01-29T07:06:17;44.63;;;21.52;;
26502;SDS011;14177;51.520;6.764;2023-01-29T07:08:45;49.38;;;21.45;;
26502;SDS011;14177;51.520;6.764;2023-01-29T07:11:12;45.88;;;21.27;;
26502;SDS011;14177;51.520;6.764;2023-01-29T07:13:39;43.28;;;21.42;;
26502;SDS011;14177;51.520;6.764;2023-01-29T07:16:06;52.25;;;23.45;;
26502;SDS011;14177;51.520;6.764;2023-01-29T07:18:33;45.78;;;21.55;;
26502;SDS011;14177;51.520;6.764;2023-01-29T07:21:44;50.45;;;21.45;;
26502;SDS011;14177;51.520;6.764;2023-01-29T07:24:11;50.10;;;21.42;;
26502;SDS011;14177;51.520;6.764;2023-01-29T07:26:38;50.53;;;23.52;;
26502;SDS011;14177;51.520;6.764;2023-01-29T07:29:05;49.08;;;22.27;;
26502;SDS011;14177;51.520;6.764;2023-01-29T07:31:32;51.60;;;22.50;;
26502;SDS011;14177;51.520;6.764;2023-01-29T07:33:59;52.38;;;23.88;;
26502;SDS011;14177;51.520;6.764;2023-01-29T07:36:26;47.80;;;22.08;;
26502;SDS011;14177;51.520;6.764;2023-01-29T07:38:53;56.10;;;23.00;;
26502;SDS011;14177;51.520;6.764;2023-01-29T07:41:20;47.25;;;22.15;;
26502;SDS011;14177;51.520;6.764;2023-01-29T07:43:47;50.03;;;22.77;;
26502;SDS011;14177;51.520;6.764;2023-01-29T07:46:14;56.58;;;25.23;;
26502;SDS011;14177;51.520;6.764;2023-01-29T07:48:41;53.00;;;24.25;;
26502;SDS011;14177;51.520;6.764;2023-01-29T07:51:08;54.08;;;25.65;;
26502;SDS011;14177;51.520;6.764;2023-01-29T07:53:35;58.20;;;25.83;;
26502;SDS011;14177;51.520;6.764;2023-01-29T07:56:02;54.33;;;26.15;;
26502;SDS011;14177;51.520;6.764;2023-01-29T07:58:29;57.85;;;28.00;;
26502;SDS011;14177;51.520;6.764;2023-01-29T08:00:56;58.28;;;26.33;;
26502;SDS011;14177;51.520;6.764;2023-01-29T08:03:23;54.80;;;25.27;;
26502;SDS011;14177;51.520;6.764;2023-01-29T08:05:50;53.53;;;24.33;;
26502;SDS011;14177;51.520;6.764;2023-01-29T08:08:17;58.33;;;27.00;;
26502;SDS011;14177;51.520;6.764;2023-01-29T08:10:59;59.72;;;26.13;;
26502;SDS011;14177;51.520;6.764;2023-01-29T08:13:31;52.25;;;24.45;;
26502;SDS011;14177;51.520;6.764;2023-01-29T08:15:59;53.38;;;23.80;;
26502;SDS011;14177;51.520;6.764;2023-01-29T08:18:27;58.67;;;24.85;;
26502;SDS011;14177;51.520;6.764;2023-01-29T08:21:00;54.47;;;23.63;;
26502;SDS011;14177;51.520;6.764;2023-01-29T08:23:27;52.72;;;23.60;;
26502;SDS011;14177;51.520;6.764;2023-01-29T08:25:54;52.33;;;24.08;;
26502;SDS011;14177;51.520;6.764;2023-01-29T08:28:21;52.17;;;23.77;;
26502;SDS011;14177;51.520;6.764;2023-01-29T08:30:48;48.28;;;20.05;;
26502;SDS011;14177;51.520;6.764;2023-01-29T08:33:15;59.00;;;24.95;;
26502;SDS011;14177;51.520;6.764;2023-01-29T08:35:50;58.97;;;25.08;;
26502;SDS011;14177;51.520;6.764;2023-01-29T08:38:17;65.40;;;25.02;;
26502;SDS011;14177;51.520;6.764;2023-01-29T08:40:44;48.70;;;23.00;;
26502;SDS011;14177;51.520;6.764;2023-01-29T08:43:11;45.65;;;21.90;;
26502;SDS011;14177;51.520;6.764;2023-01-29T08:45:40;54.72;;;24.88;;
26502;SDS011;14177;51.520;6.764;2023-01-29T08:48:09;54.42;;;24.90;;
26502;SDS011;14177;51.520;6.764;2023-01-29T08:50:36;68.18;;;28.50;;
26502;SDS011;14177;51.520;6.764;2023-01-29T08:53:04;56.22;;;25.55;;
26502;SDS011;14177;51.520;6.764;2023-01-29T08:55:37;51.67;;;22.88;;
26502;SDS011;14177;51.520;6.764;2023-01-29T08:58:06;51.90;;;22.48;;
26502;SDS011;14177;51.520;6.764;2023-01-29T09:00:36;52.45;;;24.00;;
26502;SDS011;14177;51.520;6.764;2023-01-29T09:03:04;50.95;;;22.52;;
26502;SDS011;14177;51.520;6.764;2023-01-29T09:05:33;61.55;;;25.10;;
26502;SDS011;14177;51.520;6.764;2023-01-29T09:08:07;52.50;;;23.60;;
26502;SDS011;14177;51.520;6.764;2023-01-29T09:10:35;55.25;;;24.00;;
26502;SDS011;14177;51.520;6.764;2023-01-29T09:13:02;60.50;;;24.67;;
26502;SDS011;14177;51.520;6.764;2023-01-29T09:15:30;56.28;;;22.67;;
26502;SDS011;14177;51.520;6.764;2023-01-29T09:17:57;54.97;;;23.80;;
26502;SDS011;14177;51.520;6.764;2023-01-29T09:20:28;49.22;;;23.08;;
26502;SDS011;14177;51.520;6.764;2023-01-29T09:22:55;53.55;;;24.02;;
26502;SDS011;14177;51.520;6.764;2023-01-29T09:25:24;48.70;;;23.20;;
26502;SDS011;14177;51.520;6.764;2023-01-29T09:27:52;56.10;;;24.13;;
26502;SDS011;14177;51.520;6.764;2023-01-29T09:30:19;50.45;;;23.15;;
26502;SDS011;14177;51.520;6.764;2023-01-29T09:32:46;53.58;;;23.55;;
26502;SDS011;14177;51.520;6.764;2023-01-29T09:35:21;51.67;;;22.95;;
26502;SDS011;14177;51.520;6.764;2023-01-29T09:37:50;55.85;;;23.63;;
26502;SDS011;14177;51.520;6.764;2023-01-29T09:40:30;55.15;;;24.23;;
26502;SDS011;14177;51.520;6.764;2023-01-29T09:43:15;52.97;;;23.05;;
26502;SDS011;14177;51.520;6.764;2023-01-29T09:46:00;44.40;;;19.73;;
26502;SDS011;14177;51.520;6.764;2023-01-29T09:48:42;51.70;;;21.90;;
26502;SDS011;14177;51.520;6.764;2023-01-29T09:51:20;56.25;;;23.75;;
26502;SDS011;14177;51.520;6.764;2023-01-29T09:54:00;47.83;;;23.23;;
26502;SDS011;14177;51.520;6.764;2023-01-29T09:56:42;57.78;;;21.20;;
26502;SDS011;14177;51.520;6.764;2023-01-29T09:59:12;60.53;;;25.45;;
26502;SDS011;14177;51.520;6.764;2023-01-29T10:04:33;50.42;;;23.40;;
26502;SDS011;14177;51.520;6.764;2023-01-29T10:10:15;52.15;;;23.80;;
26502;SDS011;14177;51.520;6.764;2023-01-29T10:18:32;51.95;;;23.77;;
26502;SDS011;14177;51.520;6.764;2023-01-29T10:27:13;59.95;;;25.23;;
26502;SDS011;14177;51.520;6.764;2023-01-29T10:29:44;50.50;;;23.00;;
26502;SDS011;14177;51.520;6.764;2023-01-29T10:32:17;51.10;;;22.52;;
26502;SDS011;14177;51.520;6.764;2023-01-29T10:34:50;52.63;;;19.85;;
26502;SDS011;14177;51.520;6.764;2023-01-29T10:37:40;58.42;;;25.05;;
26502;SDS011;14177;51.520;6.764;2023-01-29T10:43:07;50.10;;;22.70;;
26502;SDS011;14177;51.520;6.764;2023-01-29T10:45:48;52.03;;;23.60;;
26502;SDS011;14177;51.520;6.764;2023-01-29T10:51:58;49.53;;;22.17;;
26502;SDS011;14177;51.520;6.764;2023-01-29T10:57:47;47.10;;;20.60;;
26502;SDS011;14177;51.520;6.764;2023-01-29T11:00:34;55.28;;;24.15;;
26502;SDS011;14177;51.520;6.764;2023-01-29T11:03:16;61.45;;;27.38;;
26502;SDS011;14177;51.520;6.764;2023-01-29T11:08:36;55.28;;;20.63;;
26502;SDS011;14177;51.520;6.764;2023-01-29T11:14:24;49.10;;;23.15;;
26502;SDS011;14177;51.520;6.764;2023-01-29T11:16:59;57.33;;;23.48;;
26502;SDS011;14177;51.520;6.764;2023-01-29T11:19:37;51.97;;;24.83;;
26502;SDS011;14177;51.520;6.764;2023-01-29T11:22:16;50.33;;;22.08;;
26502;SDS011;14177;51.520;6.764;2023-01-29T11:24:47;55.40;;;25.30;;
26502;SDS011;14177;51.520;6.764;2023-01-29T11:27:45;50.30;;;22.48;;
26502;SDS011;14177;51.520;6.764;2023-01-29T11:30:29;57.00;;;24.63;;
26502;SDS011;14177;51.520;6.764;2023-01-29T11:33:08;50.20;;;22.27;;
26502;SDS011;14177;51.520;6.764;2023-01-29T11:35:44;57.42;;;23.38;;
26502;SDS011;14177;51.520;6.764;2023-01-29T11:40:50;49.58;;;21.30;;
26502;SDS011;14177;51.520;6.764;2023-01-29T11:43:29;53.97;;;22.05;;
26502;SDS011;14177;51.520;6.764;2023-01-29T11:48:32;54.00;;;23.20;;
26502;SDS011;14177;51.520;6.764;2023-01-29T11:51:22;50.75;;;20.90;;
26502;SDS011;14177;51.520;6.764;2023-01-29T11:53:57;50.45;;;22.52;;
26502;SDS011;14177;51.520;6.764;2023-01-29T11:56:28;44.03;;;20.48;;
26502;SDS011;14177;51.520;6.764;2023-01-29T11:59:00;44.85;;;20.50;;
26502;SDS011;14177;51.520;6.764;2023-01-29T12:01:35;48.88;;;22.10;;
26502;SDS011;14177;51.520;6.764;2023-01-29T12:06:51;39.95;;;19.55;;
26502;SDS011;14177;51.520;6.764;2023-01-29T12:09:23;53.42;;;22.60;;
26502;SDS011;14177;51.520;6.764;2023-01-29T12:11:54;43.67;;;19.52;;
26502;SDS011;14177;51.520;6.764;2023-01-29T12:14:28;37.45;;;16.60;;
26502;SDS011;14177;51.520;6.764;2023-01-29T12:25:15;45.67;;;21.10;;
26502;SDS011;14177;51.520;6.764;2023-01-29T12:36:20;50.35;;;22.20;;
26502;SDS011;14177;51.520;6.764;2023-01-29T12:38:49;52.65;;;22.20;;
26502;SDS011;14177;51.520;6.764;2023-01-29T12:44:35;44.47;;;20.08;;
26502;SDS011;14177;51.520;6.764;2023-01-29T12:47:16;48.80;;;21.27;;
26502;SDS011;14177;51.520;6.764;2023-01-29T12:49:52;41.17;;;18.77;;
26502;SDS011;14177;51.520;6.764;2023-01-29T12:52:36;46.75;;;22.00;;
26502;SDS011;14177;51.520;6.764;2023-01-29T12:55:23;46.38;;;21.30;;
26502;SDS011;14177;51.520;6.764;2023-01-29T12:58:03;50.53;;;22.73;;
26502;SDS011;14177;51.520;6.764;2023-01-29T13:00:44;46.33;;;21.55;;
26502;SDS011;14177;51.520;6.764;2023-01-29T13:03:30;51.47;;;19.92;;
26502;SDS011;14177;51.520;6.764;2023-01-29T13:06:17;48.30;;;20.30;;
26502;SDS011;14177;51.520;6.764;2023-01-29T13:08:57;46.83;;;20.50;;
26502;SDS011;14177;51.520;6.764;2023-01-29T13:11:39;51.40;;;23.35;;
26502;SDS011;14177;51.520;6.764;2023-01-29T13:14:19;47.90;;;20.85;;
26502;SDS011;14177;51.520;6.764;2023-01-29T13:16:56;44.47;;;20.52;;
26502;SDS011;14177;51.520;6.764;2023-01-29T13:19:41;52.33;;;22.38;;
26502;SDS011;14177;51.520;6.764;2023-01-29T13:22:18;46.80;;;22.13;;
26502;SDS011;14177;51.520;6.764;2023-01-29T13:24:58;47.33;;;21.90;;
26502;SDS011;14177;51.520;6.764;2023-01-29T13:27:32;49.13;;;21.02;;
26502;SDS011;14177;51.520;6.764;2023-01-29T13:30:02;46.05;;;20.35;;
26502;SDS011;14177;51.520;6.764;2023-01-29T13:32:30;47.85;;;20.70;;
26502;SDS011;14177;51.520;6.764;2023-01-29T13:35:03;47.60;;;21.55;;
26502;SDS011;14177;51.520;6.764;2023-01-29T13:38:00;48.25;;;21.92;;
26502;SDS011;14177;51.520;6.764;2023-01-29T13:40:27;48.55;;;21.45;;
26502;SDS011;14177;51.520;6.764;2023-01-29T13:43:00;44.70;;;20.73;;
26502;SDS011;14177;51.520;6.764;2023-01-29T13:45:32;47.58;;;21.35;;
26502;SDS011;14177;51.520;6.764;2023-01-29T13:48:24;48.70;;;21.83;;
26502;SDS011;14177;51.520;6.764;2023-01-29T13:50:54;46.00;;;21.50;;
26502;SDS011;14177;51.520;6.764;2023-01-29T13:53:26;42.67;;;20.08;;
26502;SDS011;14177;51.520;6.764;2023-01-29T13:56:27;46.20;;;20.25;;
26502;SDS011;14177;51.520;6.764;2023-01-29T13:59:00;43.27;;;20.30;;
26502;SDS011;14177;51.520;6.764;2023-01-29T14:06:51;43.20;;;19.38;;
26502;SDS011;14177;51.520;6.764;2023-01-29T14:12:30;47.55;;;21.17;;
26502;SDS011;14177;51.520;6.764;2023-01-29T14:17:21;39.58;;;19.98;;
26502;SDS011;14177;51.520;6.764;2023-01-29T14:19:53;42.03;;;20.13;;
26502;SDS011;14177;51.520;6.764;2023-01-29T14:22:29;40.13;;;18.38;;
26502;SDS011;14177;51.520;6.764;2023-01-29T14:25:00;45.70;;;20.48;;
26502;SDS011;14177;51.520;6.764;2023-01-29T14:27:31;43.38;;;20.27;;
26502;SDS011;14177;51.520;6.764;2023-01-29T14:30:00;43.20;;;20.13;;
26502;SDS011;14177;51.520;6.764;2023-01-29T14:32:33;49.72;;;22.15;;
26502;SDS011;14177;51.520;6.764;2023-01-29T14:37:51;36.38;;;17.50;;
26502;SDS011;14177;51.520;6.764;2023-01-29T14:40:24;43.30;;;19.73;;
26502;SDS011;14177;51.520;6.764;2023-01-29T14:50:40;36.83;;;17.20;;
26502;SDS011;14177;51.520;6.764;2023-01-29T14:53:14;39.25;;;16.60;;
26502;SDS011;14177;51.520;6.764;2023-01-29T14:56:19;40.42;;;17.02;;
26502;SDS011;14177;51.520;6.764;2023-01-29T14:58:52;40.15;;;16.73;;
26502;SDS011;14177;51.520;6.764;2023-01-29T15:01:32;32.75;;;14.93;;
26502;SDS011;14177;51.520;6.764;2023-01-29T15:06:56;35.13;;;15.15;;
26502;SDS011;14177;51.520;6.764;2023-01-29T15:12:49;27.30;;;11.65;;
26502;SDS011;14177;51.520;6.764;2023-01-29T15:15:35;32.38;;;14.07;;
26502;SDS011;14177;51.520;6.764;2023-01-29T15:18:12;36.70;;;14.70;;
26502;SDS011;14177;51.520;6.764;2023-01-29T15:21:15;35.40;;;13.75;;
26502;SDS011;14177;51.520;6.764;2023-01-29T15:23:44;28.65;;;13.98;;
26502;SDS011;14177;51.520;6.764;2023-01-29T15:26:32;34.67;;;15.48;;
26502;SDS011;14177;51.520;6.764;2023-01-29T15:29:22;33.17;;;15.17;;
26502;SDS011;14177;51.520;6.764;2023-01-29T15:32:00;30.90;;;15.25;;
26502;SDS011;14177;51.520;6.764;2023-01-29T15:34:43;38.28;;;16.83;;
26502;SDS011;14177;51.520;6.764;2023-01-29T15:40:53;31.60;;;15.75;;
26502;SDS011;14177;51.520;6.764;2023-01-29T15:43:36;34.47;;;15.70;;
26502;SDS011;14177;51.520;6.764;2023-01-29T15:46:39;35.38;;;17.02;;
26502;SDS011;14177;51.520;6.764;2023-01-29T15:49:44;30.77;;;14.50;;
26502;SDS011;14177;51.520;6.764;2023-01-29T15:52:29;35.83;;;15.93;;
26502;SDS011;14177;51.520;6.764;2023-01-29T15:55:28;31.40;;;13.88;;
26502;SDS011;14177;51.520;6.764;2023-01-29T15:58:16;34.97;;;15.13;;
26502;SDS011;14177;51.520;6.764;2023-01-29T16:01:16;36.38;;;16.38;;
26502;SDS011;14177;51.520;6.764;2023-01-29T16:07:55;35.17;;;14.85;;
26502;SDS011;14177;51.520;6.764;2023-01-29T16:10:28;33.42;;;16.05;;
26502;SDS011;14177;51.520;6.764;2023-01-29T16:12:57;36.72;;;15.95;;
26502;SDS011;14177;51.520;6.764;2023-01-29T16:15:29;34.72;;;15.93;;
26502;SDS011;14177;51.520;6.764;2023-01-29T16:18:19;32.80;;;15.18;;
26502;SDS011;14177;51.520;6.764;2023-01-29T16:21:05;33.92;;;15.70;;
26502;SDS011;14177;51.520;6.764;2023-01-29T16:23:58;34.75;;;17.38;;
26502;SDS011;14177;51.520;6.764;2023-01-29T16:26:34;37.05;;;17.50;;
26502;SDS011;14177;51.520;6.764;2023-01-29T16:29:14;34.10;;;15.45;;
26502;SDS011;14177;51.520;6.764;2023-01-29T16:31:47;39.88;;;18.40;;
26502;SDS011;14177;51.520;6.764;2023-01-29T16:34:29;38.65;;;17.48;;
26502;SDS011;14177;51.520;6.764;2023-01-29T16:37:19;38.25;;;17.45;;
26502;SDS011;14177;51.520;6.764;2023-01-29T16:39:57;33.58;;;15.75;;
26502;SDS011;14177;51.520;6.764;2023-01-29T16:42:33;34.95;;;16.42;;
26502;SDS011;14177;51.520;6.764;2023-01-29T16:45:03;36.97;;;17.90;;
26502;SDS011;14177;51.520;6.764;2023-01-29T16:47:36;44.90;;;18.63;;
26502;SDS011;14177;51.520;6.764;2023-01-29T16:50:28;43.53;;;17.60;;
26502;SDS011;14177;51.520;6.764;2023-01-29T16:53:20;45.45;;;20.55;;
26502;SDS011;14177;51.520;6.764;2023-01-29T16:55:49;46.75;;;21.13;;
26502;SDS011;14177;51.520;6.764;2023-01-29T16:58:19;44.75;;;19.17;;
26502;SDS011;14177;51.520;6.764;2023-01-29T17:00:52;38.85;;;17.67;;
26502;SDS011;14177;51.520;6.764;2023-01-29T17:03:30;47.63;;;21.73;;
26502;SDS011;14177;51.520;6.764;2023-01-29T17:06:12;46.63;;;21.58;;
26502;SDS011;14177;51.520;6.764;2023-01-29T17:08:48;34.55;;;15.10;;
26502;SDS011;14177;51.520;6.764;2023-01-29T17:11:22;38.05;;;17.67;;
26502;SDS011;14177;51.520;6.764;2023-01-29T17:14:03;41.83;;;17.85;;
26502;SDS011;14177;51.520;6.764;2023-01-29T17:16:47;41.30;;;18.60;;
26502;SDS011;14177;51.520;6.764;2023-01-29T17:19:28;36.30;;;18.00;;
26502;SDS011;14177;51.520;6.764;2023-01-29T17:21:56;40.72;;;16.90;;
26502;SDS011;14177;51.520;6.764;2023-01-29T17:24:25;40.42;;;18.80;;
26502;SDS011;14177;51.520;6.764;2023-01-29T17:26:59;41.60;;;18.65;;
26502;SDS011;14177;51.520;6.764;2023-01-29T17:29:31;39.83;;;19.70;;